Southport — V7PQ6 — position and weather

sailwx.info

Track history (hours):
 
Tides and Currents Weather Stations Pressure Air Temp Water Temp Dewpoint Dewpoint Depression Visibility Wind Speed Wind Dir Waves Ship Positions

Southport

Last reported at 2018-Apr-20 06:31 UTC. Time now 2018-Apr-20 12:53 UTC.
Position N 25°28' W 079°32'.

Length 250 m; draft 11.6 m.

Type: Ship. MMSI: 538003268.

Date/timePositionNaut miles runAvg speedWind from/ knotsBaromVisibWave heightAir tempDewpointWater temp
2018-Apr-20 06:31N 25°28' W 079°32'0 9.0
2018-Apr-20 06:29N 25°28' W 079°32'4 9.1
2018-Apr-20 06:00N 25°32' W 079°31'10 8.7
2018-Apr-20 04:51N 25°42' W 079°29'3 8.8
2018-Apr-20 04:27N 25°46' W 079°29'6 8.6
2018-Apr-20 03:45N 25°52' W 079°28'5 8.6
2018-Apr-20 03:08N 25°57' W 079°28'2 8.5
2018-Apr-20 02:56N 25°59' W 079°28'4 8.4
2018-Apr-20 02:30N 26°02' W 079°27'4 8.5
2018-Apr-20 02:00N 26°06' W 079°27'5 8.6
2018-Apr-20 01:29N 26°11' W 079°27'4 8.7
2018-Apr-20 01:00N 26°15' W 079°27'22 8.6
2018-Apr-19 22:30N 26°37' W 079°25'86 7.5
2018-Apr-19 10:58N 27°43' W 078°24'6 8.8
2018-Apr-19 10:19N 27°43' W 078°17'2510.1
2018-Apr-19 07:48N 27°49' W 077°49'510.5
2018-Apr-19 07:22N 27°50' W 077°44'510.7
2018-Apr-19 06:54N 27°51' W 077°39'410.6
2018-Apr-19 06:30N 27°52' W 077°34'610.7
2018-Apr-19 05:58N 27°53' W 077°28'1011.0
2018-Apr-19 05:03N 27°55' W 077°17'111.8
2018-Apr-19 05:00N 27°55' W 077°16'  
Track history (hours):
 
Tides and Currents Weather Stations Pressure Air Temp Water Temp Dewpoint Dewpoint Depression Visibility Wind Speed Wind Dir Waves Ship Positions

Southport

Last reported at 2018-Apr-20 06:31 UTC. Time now 2018-Apr-20 12:53 UTC.
Position N 25°28' W 079°32'.

Length 250 m; draft 11.6 m.

Type: Ship. MMSI: 538003268.

Date/timePositionNaut miles runAvg speedWind from/ knotsBaromVisibWave heightAir tempDewpointWater temp
2018-Apr-20 06:31N 25°28' W 079°32'0 9.0
2018-Apr-20 06:29N 25°28' W 079°32'4 9.1
2018-Apr-20 06:00N 25°32' W 079°31'10 8.7
2018-Apr-20 04:51N 25°42' W 079°29'3 8.8
2018-Apr-20 04:27N 25°46' W 079°29'6 8.6
2018-Apr-20 03:45N 25°52' W 079°28'5 8.6
2018-Apr-20 03:08N 25°57' W 079°28'2 8.5
2018-Apr-20 02:56N 25°59' W 079°28'4 8.4
2018-Apr-20 02:30N 26°02' W 079°27'4 8.5
2018-Apr-20 02:00N 26°06' W 079°27'5 8.6
2018-Apr-20 01:29N 26°11' W 079°27'4 8.7
2018-Apr-20 01:00N 26°15' W 079°27'22 8.6
2018-Apr-19 22:30N 26°37' W 079°25'86 7.5
2018-Apr-19 10:58N 27°43' W 078°24'6 8.8
2018-Apr-19 10:19N 27°43' W 078°17'2510.1
2018-Apr-19 07:48N 27°49' W 077°49'510.5
2018-Apr-19 07:22N 27°50' W 077°44'510.7
2018-Apr-19 06:54N 27°51' W 077°39'410.6
2018-Apr-19 06:30N 27°52' W 077°34'610.7
2018-Apr-19 05:58N 27°53' W 077°28'1011.0
2018-Apr-19 05:03N 27°55' W 077°17'111.8
2018-Apr-19 05:00N 27°55' W 077°16'  

Dump ship's entire track history